sensor_id;sensor_type;location;lat;lon;timestamp;pressure;altitude;pressure_sealevel;temperature;humidity
25130;BME280;13308;50.860;13.664;2022-08-01T04:40:28;96649.31;;;18.55;94.40
25130;BME280;13308;50.860;13.664;2022-08-01T04:42:53;96647.94;;;18.74;93.87
25130;BME280;13308;50.860;13.664;2022-08-01T04:45:19;96645.56;;;18.58;95.29
25130;BME280;13308;50.860;13.664;2022-08-01T04:47:45;96641.50;;;18.59;95.86
25130;BME280;13308;50.860;13.664;2022-08-01T04:50:13;96649.66;;;18.71;94.71
25130;BME280;13308;50.860;13.664;2022-08-01T04:52:38;96650.25;;;18.98;92.93
25130;BME280;13308;50.860;13.664;2022-08-01T04:55:04;96652.47;;;19.09;93.66
25130;BME280;13308;50.860;13.664;2022-08-01T04:57:38;96645.56;;;19.19;93.84
25130;BME280;13308;50.860;13.664;2022-08-01T05:00:05;96651.59;;;19.27;94.06
25130;BME280;13308;50.860;13.664;2022-08-01T05:02:31;96659.81;;;19.30;94.14
25130;BME280;13308;50.860;13.664;2022-08-01T05:04:57;96663.69;;;19.47;93.39
25130;BME280;13308;50.860;13.664;2022-08-01T05:07:22;96660.72;;;19.50;93.03
25130;BME280;13308;50.860;13.664;2022-08-01T05:09:47;96660.91;;;19.47;94.33
25130;BME280;13308;50.860;13.664;2022-08-01T05:12:13;96650.78;;;19.49;93.67
25130;BME280;13308;50.860;13.664;2022-08-01T05:14:39;96659.91;;;19.50;93.93
25130;BME280;13308;50.860;13.664;2022-08-01T05:17:06;96655.19;;;19.56;93.74
25130;BME280;13308;50.860;13.664;2022-08-01T05:19:35;96656.66;;;19.66;93.84
25130;BME280;13308;50.860;13.664;2022-08-01T05:22:02;96669.41;;;19.67;92.83
25130;BME280;13308;50.860;13.664;2022-08-01T05:24:30;96670.00;;;19.71;92.83
25130;BME280;13308;50.860;13.664;2022-08-01T05:26:56;96665.06;;;19.80;93.10
25130;BME280;13308;50.860;13.664;2022-08-01T05:29:23;96668.06;;;19.91;93.00
25130;BME280;13308;50.860;13.664;2022-08-01T05:31:48;96662.91;;;20.04;92.88
25130;BME280;13308;50.860;13.664;2022-08-01T05:34:13;96668.09;;;20.06;93.30
25130;BME280;13308;50.860;13.664;2022-08-01T05:36:39;96663.34;;;20.12;92.95
25130;BME280;13308;50.860;13.664;2022-08-01T05:39:05;96669.41;;;19.96;95.80
25130;BME280;13308;50.860;13.664;2022-08-01T05:41:30;96657.63;;;19.92;99.10
25130;BME280;13308;50.860;13.664;2022-08-01T05:43:56;96655.88;;;19.80;98.29
25130;BME280;13308;50.860;13.664;2022-08-01T05:46:21;96656.84;;;19.77;97.87
25130;BME280;13308;50.860;13.664;2022-08-01T05:48:46;96661.59;;;19.85;99.42
25130;BME280;13308;50.860;13.664;2022-08-01T05:51:11;96662.06;;;19.84;97.49
25130;BME280;13308;50.860;13.664;2022-08-01T05:53:37;96666.59;;;19.81;99.26
25130;BME280;13308;50.860;13.664;2022-08-01T05:56:02;96661.88;;;19.87;99.01
25130;BME280;13308;50.860;13.664;2022-08-01T05:58:28;96666.59;;;19.81;99.69
25130;BME280;13308;50.860;13.664;2022-08-01T06:00:53;96675.88;;;19.87;99.53
25130;BME280;13308;50.860;13.664;2022-08-01T06:03:18;96675.66;;;19.91;99.63
25130;BME280;13308;50.860;13.664;2022-08-01T06:05:44;96674.81;;;19.85;100.00
25130;BME280;13308;50.860;13.664;2022-08-01T06:08:09;96678.94;;;19.89;100.00
25130;BME280;13308;50.860;13.664;2022-08-01T06:10:34;96674.41;;;19.77;100.00
25130;BME280;13308;50.860;13.664;2022-08-01T06:13:00;96675.19;;;19.78;100.00
25130;BME280;13308;50.860;13.664;2022-08-01T06:15:28;96682.91;;;19.83;100.00
25130;BME280;13308;50.860;13.664;2022-08-01T06:17:54;96686.38;;;19.78;100.00
25130;BME280;13308;50.860;13.664;2022-08-01T06:20:20;96686.16;;;19.52;100.00
25130;BME280;13308;50.860;13.664;2022-08-01T06:22:45;96690.78;;;19.41;100.00
25130;BME280;13308;50.860;13.664;2022-08-01T06:25:10;96687.84;;;19.21;100.00
25130;BME280;13308;50.860;13.664;2022-08-01T06:27:36;96680.06;;;19.16;100.00
25130;BME280;13308;50.860;13.664;2022-08-01T06:30:02;96684.13;;;19.15;100.00
25130;BME280;13308;50.860;13.664;2022-08-01T06:32:27;96684.31;;;19.11;100.00
25130;BME280;13308;50.860;13.664;2022-08-01T06:34:53;96683.84;;;19.13;100.00
25130;BME280;13308;50.860;13.664;2022-08-01T06:37:19;96697.78;;;19.22;100.00
25130;BME280;13308;50.860;13.664;2022-08-01T06:39:44;96687.13;;;19.35;100.00
25130;BME280;13308;50.860;13.664;2022-08-01T06:42:10;96690.13;;;19.46;100.00
25130;BME280;13308;50.860;13.664;2022-08-01T06:44:35;96695.63;;;19.55;100.00
25130;BME280;13308;50.860;13.664;2022-08-01T06:47:00;96697.75;;;19.60;100.00
25130;BME280;13308;50.860;13.664;2022-08-01T06:49:26;96698.63;;;19.66;100.00
25130;BME280;13308;50.860;13.664;2022-08-01T06:51:51;96692.34;;;19.56;100.00
25130;BME280;13308;50.860;13.664;2022-08-01T06:54:16;96696.88;;;19.54;100.00
25130;BME280;13308;50.860;13.664;2022-08-01T06:56:42;96699.31;;;19.61;100.00
25130;BME280;13308;50.860;13.664;2022-08-01T06:59:07;96708.28;;;19.65;100.00
25130;BME280;13308;50.860;13.664;2022-08-01T07:01:33;96697.09;;;19.65;100.00
25130;BME280;13308;50.860;13.664;2022-08-01T07:03:58;96696.97;;;19.59;100.00
25130;BME280;13308;50.860;13.664;2022-08-01T07:06:25;96697.16;;;19.56;100.00
25130;BME280;13308;50.860;13.664;2022-08-01T07:08:51;96699.75;;;19.45;100.00
25130;BME280;13308;50.860;13.664;2022-08-01T07:11:17;96703.53;;;19.42;100.00
25130;BME280;13308;50.860;13.664;2022-08-01T07:13:42;96709.31;;;19.38;100.00
25130;BME280;13308;50.860;13.664;2022-08-01T07:16:07;96709.31;;;19.38;100.00
25130;BME280;13308;50.860;13.664;2022-08-01T07:18:33;96711.97;;;19.33;100.00
25130;BME280;13308;50.860;13.664;2022-08-01T07:20:58;96709.00;;;19.36;100.00
25130;BME280;13308;50.860;13.664;2022-08-01T07:23:23;96715.31;;;19.46;100.00
25130;BME280;13308;50.860;13.664;2022-08-01T07:25:49;96712.78;;;19.48;100.00
25130;BME280;13308;50.860;13.664;2022-08-01T07:28:16;96712.19;;;19.44;100.00
25130;BME280;13308;50.860;13.664;2022-08-01T07:30:41;96709.41;;;19.44;100.00
25130;BME280;13308;50.860;13.664;2022-08-01T07:33:07;96719.13;;;19.34;100.00
25130;BME280;13308;50.860;13.664;2022-08-01T07:35:32;96711.50;;;19.11;100.00
25130;BME280;13308;50.860;13.664;2022-08-01T07:37:58;96713.06;;;19.12;100.00
25130;BME280;13308;50.860;13.664;2022-08-01T07:40:23;96715.75;;;19.30;100.00
25130;BME280;13308;50.860;13.664;2022-08-01T07:42:49;96714.84;;;19.24;100.00
25130;BME280;13308;50.860;13.664;2022-08-01T07:45:14;96718.72;;;19.27;100.00
25130;BME280;13308;50.860;13.664;2022-08-01T07:47:40;96720.09;;;19.31;100.00
25130;BME280;13308;50.860;13.664;2022-08-01T07:50:06;96720.56;;;19.06;100.00
25130;BME280;13308;50.860;13.664;2022-08-01T07:52:32;96712.69;;;19.19;100.00
25130;BME280;13308;50.860;13.664;2022-08-01T07:54:57;96714.72;;;19.42;100.00
25130;BME280;13308;50.860;13.664;2022-08-01T07:57:24;96719.88;;;19.58;100.00
25130;BME280;13308;50.860;13.664;2022-08-01T07:59:49;96718.66;;;19.88;100.00
25130;BME280;13308;50.860;13.664;2022-08-01T08:02:15;96718.06;;;19.98;100.00
25130;BME280;13308;50.860;13.664;2022-08-01T08:04:41;96714.72;;;20.09;100.00
25130;BME280;13308;50.860;13.664;2022-08-01T08:07:06;96717.78;;;20.11;100.00
25130;BME280;13308;50.860;13.664;2022-08-01T08:09:32;96718.06;;;19.98;100.00
25130;BME280;13308;50.860;13.664;2022-08-01T08:11:57;96717.88;;;20.02;100.00
25130;BME280;13308;50.860;13.664;2022-08-01T08:14:22;96720.03;;;20.07;100.00
25130;BME280;13308;50.860;13.664;2022-08-01T08:16:49;96728.78;;;20.00;100.00
25130;BME280;13308;50.860;13.664;2022-08-01T08:19:15;96734.06;;;19.98;100.00
25130;BME280;13308;50.860;13.664;2022-08-01T08:21:40;96719.78;;;19.96;100.00
25130;BME280;13308;50.860;13.664;2022-08-01T08:24:07;96723.53;;;19.78;100.00
25130;BME280;13308;50.860;13.664;2022-08-01T08:26:45;96727.88;;;19.65;100.00
25130;BME280;13308;50.860;13.664;2022-08-01T08:29:11;96728.06;;;19.61;100.00
25130;BME280;13308;50.860;13.664;2022-08-01T08:31:36;96737.91;;;19.71;100.00
25130;BME280;13308;50.860;13.664;2022-08-01T08:34:01;96730.75;;;19.56;100.00
25130;BME280;13308;50.860;13.664;2022-08-01T08:36:27;96740.59;;;19.51;100.00
25130;BME280;13308;50.860;13.664;2022-08-01T08:38:52;96740.03;;;19.62;100.00
25130;BME280;13308;50.860;13.664;2022-08-01T08:41:18;96729.50;;;19.57;100.00
25130;BME280;13308;50.860;13.664;2022-08-01T08:43:43;96737.31;;;19.53;100.00
25130;BME280;13308;50.860;13.664;2022-08-01T08:46:12;96739.47;;;19.58;100.00
25130;BME280;13308;50.860;13.664;2022-08-01T08:48:40;96739.16;;;19.56;100.00
25130;BME280;13308;50.860;13.664;2022-08-01T08:51:07;96740.50;;;19.60;100.00
25130;BME280;13308;50.860;13.664;2022-08-01T08:53:34;96752.19;;;19.59;100.00
25130;BME280;13308;50.860;13.664;2022-08-01T08:56:01;96744.16;;;19.66;100.00
25130;BME280;13308;50.860;13.664;2022-08-01T08:58:27;96743.13;;;19.64;100.00
25130;BME280;13308;50.860;13.664;2022-08-01T09:00:56;96747.75;;;19.67;100.00
25130;BME280;13308;50.860;13.664;2022-08-01T09:03:21;96743.88;;;19.64;100.00
25130;BME280;13308;50.860;13.664;2022-08-01T09:05:46;96761.47;;;19.65;100.00
25130;BME280;13308;50.860;13.664;2022-08-01T09:08:12;96764.78;;;19.54;100.00
25130;BME280;13308;50.860;13.664;2022-08-01T09:10:37;96763.75;;;19.52;100.00
25130;BME280;13308;50.860;13.664;2022-08-01T09:13:11;96770.91;;;19.53;100.00
25130;BME280;13308;50.860;13.664;2022-08-01T09:15:43;96768.94;;;19.44;100.00
25130;BME280;13308;50.860;13.664;2022-08-01T09:18:25;96755.09;;;19.17;100.00
25130;BME280;13308;50.860;13.664;2022-08-01T09:21:07;96771.25;;;19.23;100.00
25130;BME280;13308;50.860;13.664;2022-08-01T09:23:34;96766.00;;;19.39;100.00
25130;BME280;13308;50.860;13.664;2022-08-01T09:26:00;96765.44;;;19.35;100.00
25130;BME280;13308;50.860;13.664;2022-08-01T09:28:29;96767.59;;;19.54;100.00
25130;BME280;13308;50.860;13.664;2022-08-01T09:30:56;96766.97;;;19.74;100.00
25130;BME280;13308;50.860;13.664;2022-08-01T09:33:22;96776.81;;;20.22;100.00
25130;BME280;13308;50.860;13.664;2022-08-01T09:35:57;96780.56;;;20.48;100.00
25130;BME280;13308;50.860;13.664;2022-08-01T09:38:24;96790.69;;;20.89;100.00
25130;BME280;13308;50.860;13.664;2022-08-01T09:40:59;96794.25;;;21.24;100.00
25130;BME280;13308;50.860;13.664;2022-08-01T09:43:29;96794.06;;;21.47;100.00
25130;BME280;13308;50.860;13.664;2022-08-01T09:45:56;96790.91;;;21.20;100.00
25130;BME280;13308;50.860;13.664;2022-08-01T09:48:22;96787.94;;;21.09;100.00
25130;BME280;13308;50.860;13.664;2022-08-01T09:50:50;96790.28;;;20.96;100.00
25130;BME280;13308;50.860;13.664;2022-08-01T09:53:15;96796.09;;;21.47;100.00
25130;BME280;13308;50.860;13.664;2022-08-01T09:55:41;96790.94;;;21.80;100.00
25130;BME280;13308;50.860;13.664;2022-08-01T09:58:08;96791.72;;;22.06;100.00
25130;BME280;13308;50.860;13.664;2022-08-01T10:00:34;96787.53;;;21.96;100.00
25130;BME280;13308;50.860;13.664;2022-08-01T10:03:18;96787.75;;;21.92;100.00
25130;BME280;13308;50.860;13.664;2022-08-01T10:05:44;96787.19;;;21.88;100.00
25130;BME280;13308;50.860;13.664;2022-08-01T10:08:09;96781.88;;;22.16;100.00
25130;BME280;13308;50.860;13.664;2022-08-01T10:10:35;96789.41;;;22.30;100.00
25130;BME280;13308;50.860;13.664;2022-08-01T10:13:01;96778.53;;;22.68;100.00
25130;BME280;13308;50.860;13.664;2022-08-01T10:15:27;96788.66;;;23.17;99.75
25130;BME280;13308;50.860;13.664;2022-08-01T10:17:55;96783.81;;;23.76;95.82
25130;BME280;13308;50.860;13.664;2022-08-01T10:20:24;96780.16;;;23.59;97.94
25130;BME280;13308;50.860;13.664;2022-08-01T10:22:53;96782.44;;;23.55;97.70
25130;BME280;13308;50.860;13.664;2022-08-01T10:25:20;96783.41;;;23.46;94.04
25130;BME280;13308;50.860;13.664;2022-08-01T10:27:48;96775.63;;;23.78;95.08
25130;BME280;13308;50.860;13.664;2022-08-01T10:30:15;96772.16;;;24.05;90.28
25130;BME280;13308;50.860;13.664;2022-08-01T10:32:41;96775.00;;;24.27;88.47
25130;BME280;13308;50.860;13.664;2022-08-01T10:35:08;96776.88;;;24.96;92.03
25130;BME280;13308;50.860;13.664;2022-08-01T10:37:35;96781.09;;;25.68;89.37
25130;BME280;13308;50.860;13.664;2022-08-01T10:40:01;96779.59;;;25.56;83.16
25130;BME280;13308;50.860;13.664;2022-08-01T10:42:26;96779.59;;;26.19;80.85
25130;BME280;13308;50.860;13.664;2022-08-01T10:44:54;96776.72;;;26.65;77.54
25130;BME280;13308;50.860;13.664;2022-08-01T10:47:38;96781.53;;;26.35;75.53
25130;BME280;13308;50.860;13.664;2022-08-01T10:52:37;96766.66;;;26.29;76.56
25130;BME280;13308;50.860;13.664;2022-08-01T10:55:05;96774.25;;;26.10;74.81
25130;BME280;13308;50.860;13.664;2022-08-01T10:57:47;96776.00;;;25.56;76.73
25130;BME280;13308;50.860;13.664;2022-08-01T11:00:19;96787.63;;;25.36;79.95
25130;BME280;13308;50.860;13.664;2022-08-01T11:03:00;96784.94;;;23.95;82.40
25130;BME280;13308;50.860;13.664;2022-08-01T11:05:33;96787.28;;;23.49;84.60
25130;BME280;13308;50.860;13.664;2022-08-01T11:08:10;96788.44;;;23.26;84.53
25130;BME280;13308;50.860;13.664;2022-08-01T11:10:40;96786.53;;;23.12;84.53
25130;BME280;13308;50.860;13.664;2022-08-01T11:13:08;96793.03;;;23.23;85.08
25130;BME280;13308;50.860;13.664;2022-08-01T11:15:34;96793.06;;;23.82;84.63
25130;BME280;13308;50.860;13.664;2022-08-01T11:18:02;96794.31;;;24.67;80.76
25130;BME280;13308;50.860;13.664;2022-08-01T11:20:31;96793.50;;;25.49;78.45
25130;BME280;13308;50.860;13.664;2022-08-01T11:28:24;96796.06;;;26.96;68.68
25130;BME280;13308;50.860;13.664;2022-08-01T11:30:52;96798.09;;;26.20;69.65
25130;BME280;13308;50.860;13.664;2022-08-01T11:33:19;96810.31;;;25.98;71.97
25130;BME280;13308;50.860;13.664;2022-08-01T11:44:00;96797.00;;;25.71;75.23
25130;BME280;13308;50.860;13.664;2022-08-01T11:49:45;96796.22;;;26.33;72.09
25130;BME280;13308;50.860;13.664;2022-08-01T11:52:19;96797.41;;;26.49;70.82
25130;BME280;13308;50.860;13.664;2022-08-01T11:55:04;96802.00;;;26.06;71.93
25130;BME280;13308;50.860;13.664;2022-08-01T11:57:32;96795.84;;;26.07;73.85
25130;BME280;13308;50.860;13.664;2022-08-01T12:00:15;96800.59;;;26.29;72.19
25130;BME280;13308;50.860;13.664;2022-08-01T12:02:41;96785.06;;;26.06;71.76
25130;BME280;13308;50.860;13.664;2022-08-01T12:05:17;96802.69;;;26.23;68.86
25130;BME280;13308;50.860;13.664;2022-08-01T12:07:49;96790.63;;;26.98;66.82
25130;BME280;13308;50.860;13.664;2022-08-01T12:10:17;96785.09;;;27.11;67.10
25130;BME280;13308;50.860;13.664;2022-08-01T12:12:47;96787.69;;;27.09;65.47
25130;BME280;13308;50.860;13.664;2022-08-01T12:15:14;96780.69;;;26.86;68.42
25130;BME280;13308;50.860;13.664;2022-08-01T12:17:51;96782.56;;;26.37;68.14
25130;BME280;13308;50.860;13.664;2022-08-01T12:20:21;96783.84;;;25.96;70.32
25130;BME280;13308;50.860;13.664;2022-08-01T12:22:47;96779.47;;;25.89;70.80
25130;BME280;13308;50.860;13.664;2022-08-01T12:25:18;96786.81;;;26.14;70.39
25130;BME280;13308;50.860;13.664;2022-08-01T12:27:45;96791.81;;;27.08;67.56
25130;BME280;13308;50.860;13.664;2022-08-01T12:30:16;96784.53;;;27.90;68.68
25130;BME280;13308;50.860;13.664;2022-08-01T12:32:43;96788.94;;;28.65;63.47
25130;BME280;13308;50.860;13.664;2022-08-01T12:35:11;96779.28;;;29.18;58.95
25130;BME280;13308;50.860;13.664;2022-08-01T12:37:38;96788.94;;;28.65;58.83
25130;BME280;13308;50.860;13.664;2022-08-01T12:40:11;96785.94;;;29.07;60.22
25130;BME280;13308;50.860;13.664;2022-08-01T12:42:38;96787.19;;;29.38;55.21
25130;BME280;13308;50.860;13.664;2022-08-01T12:45:05;96794.25;;;28.87;58.23
25130;BME280;13308;50.860;13.664;2022-08-01T12:47:32;96793.97;;;28.16;59.37
25130;BME280;13308;50.860;13.664;2022-08-01T12:49:58;96796.53;;;29.07;60.31
25130;BME280;13308;50.860;13.664;2022-08-01T12:52:23;96806.88;;;29.49;58.82
25130;BME280;13308;50.860;13.664;2022-08-01T12:55:14;96797.81;;;28.74;58.50
25130;BME280;13308;50.860;13.664;2022-08-01T12:57:42;96791.09;;;29.22;57.84
25130;BME280;13308;50.860;13.664;2022-08-01T13:00:23;96800.16;;;29.65;58.88
25130;BME280;13308;50.860;13.664;2022-08-01T13:03:02;96805.22;;;29.27;58.29
25130;BME280;13308;50.860;13.664;2022-08-01T13:05:40;96792.00;;;29.43;56.15
25130;BME280;13308;50.860;13.664;2022-08-01T13:08:10;96796.56;;;29.20;55.65
25130;BME280;13308;50.860;13.664;2022-08-01T13:10:36;96799.19;;;28.68;55.20
25130;BME280;13308;50.860;13.664;2022-08-01T13:13:01;96801.59;;;29.40;52.71
25130;BME280;13308;50.860;13.664;2022-08-01T13:15:32;96794.69;;;29.09;54.13
25130;BME280;13308;50.860;13.664;2022-08-01T13:18:01;96793.88;;;28.96;56.06
25130;BME280;13308;50.860;13.664;2022-08-01T13:20:45;96793.88;;;28.46;56.81
25130;BME280;13308;50.860;13.664;2022-08-01T13:23:19;96791.69;;;28.15;58.07
25130;BME280;13308;50.860;13.664;2022-08-01T13:25:55;96797.78;;;28.93;56.19
25130;BME280;13308;50.860;13.664;2022-08-01T13:28:25;96801.31;;;29.43;53.73
25130;BME280;13308;50.860;13.664;2022-08-01T13:31:03;96802.34;;;29.85;52.32
25130;BME280;13308;50.860;13.664;2022-08-01T13:33:49;96803.38;;;29.43;52.68
25130;BME280;13308;50.860;13.664;2022-08-01T13:36:14;96803.00;;;29.78;51.20
25130;BME280;13308;50.860;13.664;2022-08-01T13:38:41;96808.56;;;30.69;49.96
25130;BME280;13308;50.860;13.664;2022-08-01T13:41:26;96788.91;;;29.28;53.42
25130;BME280;13308;50.860;13.664;2022-08-01T13:43:52;96801.28;;;30.47;51.39
25130;BME280;13308;50.860;13.664;2022-08-01T13:46:17;96794.66;;;30.32;51.25
25130;BME280;13308;50.860;13.664;2022-08-01T13:48:43;96781.53;;;29.90;51.60
25130;BME280;13308;50.860;13.664;2022-08-01T13:51:08;96792.81;;;30.21;52.14
25130;BME280;13308;50.860;13.664;2022-08-01T13:53:34;96797.22;;;28.94;51.61
25130;BME280;13308;50.860;13.664;2022-08-01T13:56:00;96791.81;;;28.78;52.89
25130;BME280;13308;50.860;13.664;2022-08-01T13:58:26;96800.91;;;29.08;50.36
25130;BME280;13308;50.860;13.664;2022-08-01T14:00:53;96796.63;;;30.11;47.80
25130;BME280;13308;50.860;13.664;2022-08-01T14:03:19;96808.16;;;30.52;46.54
25130;BME280;13308;50.860;13.664;2022-08-01T14:05:45;96809.34;;;31.23;46.14
25130;BME280;13308;50.860;13.664;2022-08-01T14:08:11;96812.44;;;31.74;45.15
25130;BME280;13308;50.860;13.664;2022-08-01T14:10:37;96821.47;;;32.21;45.24
25130;BME280;13308;50.860;13.664;2022-08-01T14:13:02;96816.41;;;31.30;47.08
25130;BME280;13308;50.860;13.664;2022-08-01T14:15:28;96811.72;;;30.32;48.99
25130;BME280;13308;50.860;13.664;2022-08-01T14:17:54;96800.13;;;29.52;49.99
25130;BME280;13308;50.860;13.664;2022-08-01T14:20:19;96800.69;;;28.87;51.90
25130;BME280;13308;50.860;13.664;2022-08-01T14:22:47;96804.41;;;28.08;52.75
25130;BME280;13308;50.860;13.664;2022-08-01T14:25:13;96799.97;;;27.94;54.21
25130;BME280;13308;50.860;13.664;2022-08-01T14:27:38;96811.56;;;27.67;53.94
25130;BME280;13308;50.860;13.664;2022-08-01T14:30:07;96812.06;;;27.47;55.26
25130;BME280;13308;50.860;13.664;2022-08-01T14:32:33;96813.13;;;27.92;54.18
25130;BME280;13308;50.860;13.664;2022-08-01T14:35:03;96810.50;;;27.22;55.37
25130;BME280;13308;50.860;13.664;2022-08-01T14:37:28;96813.78;;;27.55;55.33
25130;BME280;13308;50.860;13.664;2022-08-01T14:39:55;96812.94;;;28.27;54.10
25130;BME280;13308;50.860;13.664;2022-08-01T14:42:20;96819.97;;;29.26;52.64
25130;BME280;13308;50.860;13.664;2022-08-01T14:44:45;96825.91;;;29.41;51.04
25130;BME280;13308;50.860;13.664;2022-08-01T14:47:11;96825.13;;;28.96;51.14
25130;BME280;13308;50.860;13.664;2022-08-01T14:49:36;96819.44;;;28.77;51.60
25130;BME280;13308;50.860;13.664;2022-08-01T14:52:01;96823.31;;;28.43;53.53
25130;BME280;13308;50.860;13.664;2022-08-01T14:54:27;96815.28;;;28.04;55.75
25130;BME280;13308;50.860;13.664;2022-08-01T14:56:52;96814.53;;;28.04;56.53
25130;BME280;13308;50.860;13.664;2022-08-01T14:59:18;96816.41;;;27.77;57.36
25130;BME280;13308;50.860;13.664;2022-08-01T15:01:44;96826.22;;;27.23;58.73
25130;BME280;13308;50.860;13.664;2022-08-01T15:04:09;96820.31;;;26.86;59.89
25130;BME280;13308;50.860;13.664;2022-08-01T15:06:34;96829.06;;;26.42;60.48
25130;BME280;13308;50.860;13.664;2022-08-01T15:09:00;96828.16;;;26.28;60.84
25130;BME280;13308;50.860;13.664;2022-08-01T15:11:25;96822.63;;;25.95;63.17
25130;BME280;13308;50.860;13.664;2022-08-01T15:13:50;96823.69;;;25.92;63.01
25130;BME280;13308;50.860;13.664;2022-08-01T15:16:35;96824.44;;;25.82;62.66
25130;BME280;13308;50.860;13.664;2022-08-01T15:19:01;96818.53;;;25.85;62.19
25130;BME280;13308;50.860;13.664;2022-08-01T15:21:26;96830.88;;;26.45;61.08
25130;BME280;13308;50.860;13.664;2022-08-01T15:23:51;96840.63;;;27.49;58.02
25130;BME280;13308;50.860;13.664;2022-08-01T15:26:17;96844.50;;;28.42;55.36
25130;BME280;13308;50.860;13.664;2022-08-01T15:28:42;96848.03;;;28.66;53.71
25130;BME280;13308;50.860;13.664;2022-08-01T15:31:08;96844.00;;;29.56;53.58
25130;BME280;13308;50.860;13.664;2022-08-01T15:33:33;96845.78;;;29.85;52.88
25130;BME280;13308;50.860;13.664;2022-08-01T15:35:59;96854.00;;;30.28;50.50
25130;BME280;13308;50.860;13.664;2022-08-01T15:38:25;96859.97;;;29.59;50.22
25130;BME280;13308;50.860;13.664;2022-08-01T15:40:51;96849.09;;;28.63;52.56
25130;BME280;13308;50.860;13.664;2022-08-01T15:43:16;96842.00;;;28.14;53.57
25130;BME280;13308;50.860;13.664;2022-08-01T15:45:42;96836.50;;;27.26;55.23
25130;BME280;13308;50.860;13.664;2022-08-01T15:48:07;96837.03;;;26.43;58.30
25130;BME280;13308;50.860;13.664;2022-08-01T15:50:32;96838.91;;;26.30;59.82
25130;BME280;13308;50.860;13.664;2022-08-01T15:52:58;96839.31;;;25.99;61.46
25130;BME280;13308;50.860;13.664;2022-08-01T15:55:23;96838.88;;;25.73;62.70
25130;BME280;13308;50.860;13.664;2022-08-01T15:57:48;96840.97;;;25.67;63.10
25130;BME280;13308;50.860;13.664;2022-08-01T16:00:14;96832.97;;;25.76;62.73
25130;BME280;13308;50.860;13.664;2022-08-01T16:02:39;96833.44;;;25.86;63.09
25130;BME280;13308;50.860;13.664;2022-08-01T16:05:06;96835.28;;;25.78;63.60
25130;BME280;13308;50.860;13.664;2022-08-01T16:07:31;96833.50;;;25.69;64.38
25130;BME280;13308;50.860;13.664;2022-08-01T16:09:57;96833.81;;;25.55;63.81
25130;BME280;13308;50.860;13.664;2022-08-01T16:12:22;96826.59;;;25.65;64.55
25130;BME280;13308;50.860;13.664;2022-08-01T16:14:47;96820.22;;;25.48;64.71
25130;BME280;13308;50.860;13.664;2022-08-01T16:17:13;96829.22;;;25.30;64.94
25130;BME280;13308;50.860;13.664;2022-08-01T16:19:38;96828.19;;;25.11;65.70
25130;BME280;13308;50.860;13.664;2022-08-01T16:22:05;96827.41;;;25.21;65.81
25130;BME280;13308;50.860;13.664;2022-08-01T16:24:30;96833.84;;;25.33;66.19
25130;BME280;13308;50.860;13.664;2022-08-01T16:26:56;96827.16;;;25.36;65.48
25130;BME280;13308;50.860;13.664;2022-08-01T16:29:21;96828.44;;;25.29;65.32
25130;BME280;13308;50.860;13.664;2022-08-01T16:31:46;96833.31;;;25.40;65.89
25130;BME280;13308;50.860;13.664;2022-08-01T16:34:12;96839.22;;;25.20;65.63
25130;BME280;13308;50.860;13.664;2022-08-01T16:36:37;96832.53;;;25.06;65.93
25130;BME280;13308;50.860;13.664;2022-08-01T16:39:02;96832.31;;;24.88;66.88
25130;BME280;13308;50.860;13.664;2022-08-01T16:41:29;96841.53;;;24.72;67.18
25130;BME280;13308;50.860;13.664;2022-08-01T16:43:55;96827.66;;;24.74;67.14
25130;BME280;13308;50.860;13.664;2022-08-01T16:46:22;96832.53;;;24.62;68.09
25130;BME280;13308;50.860;13.664;2022-08-01T16:48:47;96825.63;;;24.80;67.92
25130;BME280;13308;50.860;13.664;2022-08-01T16:51:13;96826.91;;;24.62;68.93
25130;BME280;13308;50.860;13.664;2022-08-01T16:53:38;96821.25;;;24.68;67.23
25130;BME280;13308;50.860;13.664;2022-08-01T16:56:03;96822.03;;;24.79;68.86
25130;BME280;13308;50.860;13.664;2022-08-01T16:58:29;96825.09;;;24.98;66.82
25130;BME280;13308;50.860;13.664;2022-08-01T17:00:55;96827.41;;;24.88;66.74
25130;BME280;13308;50.860;13.664;2022-08-01T17:03:20;96821.78;;;24.83;67.80
25130;BME280;13308;50.860;13.664;2022-08-01T17:05:47;96822.28;;;24.70;68.53
25130;BME280;13308;50.860;13.664;2022-08-01T17:08:12;96818.94;;;24.61;68.36
25130;BME280;13308;50.860;13.664;2022-08-01T17:10:38;96825.03;;;24.43;68.34
25130;BME280;13308;50.860;13.664;2022-08-01T17:13:04;96825.25;;;24.28;68.61
25130;BME280;13308;50.860;13.664;2022-08-01T17:15:29;96818.84;;;24.28;68.99
25130;BME280;13308;50.860;13.664;2022-08-01T17:17:55;96821.38;;;24.15;68.26
25130;BME280;13308;50.860;13.664;2022-08-01T17:20:21;96828.28;;;24.08;68.39
25130;BME280;13308;50.860;13.664;2022-08-01T17:22:47;96832.13;;;24.05;69.04
25130;BME280;13308;50.860;13.664;2022-08-01T17:25:12;96835.91;;;23.97;69.30
25130;BME280;13308;50.860;13.664;2022-08-01T17:27:37;96840.31;;;24.09;68.72
25130;BME280;13308;50.860;13.664;2022-08-01T17:30:04;96843.38;;;24.00;69.20
25130;BME280;13308;50.860;13.664;2022-08-01T17:32:29;96837.25;;;24.07;69.13
